ダーウィン の空港の天気 - METARとTAF

ダーウィン国際空港 ( YPDN / DRW ) - オーストラリア ノーザンテリトリーダーウィン
飛行場実況気象(Metar)
観測時間04/27 14:00 ACST (04/27 04:30 UTC)
風向・風速東 3m/s
視程10km以上
天気現象
なし
気温33℃
湿度36%
気圧1011hPa
METARYPDN 270430Z 08006KT CAVOK 33/16 Q1011 NOSIG
過去の天気等 Google飛行場航空写真 Wunderground天気予報

過去48時間のMETAR

飛行場予報(TAF)
発表時間: 4/27 08:34 ACST (4/26 23:04 UTC)
予報対象時間: 27日9時 ACST ~ 28日15時 ACST
風向・風速東 5m/s
視程10km以上
なし
27日16時 ACST から
風向・風速北北西 4m/s
視程10km以上
なし
27日23時 ACST から
風向・風速南南西 3m/s
視程10km以上
少しの雲 雲底高度 610m
28日6時 ACST から
風向・風速東南東 5m/s
視程10km以上
なし
TAF YPDN 262304Z 2700/2806 09010KT CAVOK
FM270700 34008KT CAVOK
FM271400 20005KT 9999 FEW020
FM272100 11010KT CAVOK